Equality, Alabama
Current Conditions -  °F | °C
As of 11:35 PM on Thursday 30 Oct 2014 (Local Time) from KALX Reporting Station
Clear Clear  
Wind Chill: 42°   Ceiling: Unl
Heat Index: 42°   Visibility: 10mi
Dew Point: 38°   Wind: 0mph
Humidity: 85%   Direction: NA
Pressure: 30.01"   Gusts: NA
Location:  32.76°N, 86.1°W
Report Text: KALX 310435Z AUTO 00000KT 10SM CLR 06/04 A3001 RMK AO2 T00580035
Loading
Personal Weather Stations






























Interactive Weather Map New forecast layout! Learn more

10-Day Weather Forecast

Advertisements
Track Severe Weather on mobile